Peary Spirit — C6YM3 — position and weather

sailwx.info

Track history (hours):
 
Tides and Currents Weather Stations Pressure Air Temp Water Temp Dewpoint Dewpoint Depression Visibility Wind Speed Wind Dir Waves Ship Positions

Peary Spirit

Last reported at 2017-Feb-16 03:18 UTC. Time now 2017-Feb-19 12:03 UTC.
Position N 55°17' E 006°39'.

Length 249 m; draft 9.5 m.

Type: Tanker. MMSI: 311027600.

Date/timePositionNaut miles runAvg speedWind from/ knotsBaromVisibWave heightAir tempDewpointWater temp
2017-Feb-16 03:18N 55°17' E 006°39'1113.2
2017-Feb-16 02:27N 55°06' E 006°47'1213.0
2017-Feb-16 01:33N 54°56' E 006°55'5212.4
2017-Feb-15 21:22N 54°08' E 007°31'1113.9
2017-Feb-15 20:32N 53°58' E 007°41'1514.8
2017-Feb-15 19:34N 53°48' E 007°59'1615.8
2017-Feb-15 18:33N 53°34' E 008°10'1 0.7
2017-Feb-15 17:33N 53°33' E 008°10'0 0.0
2017-Feb-15 10:30N 53°33' E 008°10'0 0.0
2017-Feb-15 01:25N 53°33' E 008°10'2 2.1
2017-Feb-15 00:33N 53°35' E 008°10'9 9.1
2017-Feb-14 23:33N 53°44' E 008°04'1110.5
2017-Feb-14 22:33N 53°51' E 007°51'1110.8
2017-Feb-14 21:33N 53°58' E 007°37'7 1.1
2017-Feb-14 15:29N 54°02' E 007°28'0 0.0
2017-Feb-14 14:11N 54°02' E 007°28'0 0.0
2017-Feb-14 10:26N 54°02' E 007°28'0 0.0
2017-Feb-14 02:20N 54°02' E 007°28'  
2017-Feb-07 04:33N 52°10' E 003°31'1111.4
2017-Feb-07 03:33N 52°05' E 003°47'10 9.7
2017-Feb-07 02:33N 52°00' E 004°01'3 3.0
2017-Feb-07 01:33N 51°58' E 004°04'0 0.0
2017-Feb-07 00:33N 51°58' E 004°04'0 0.0
2017-Feb-06 23:33N 51°58' E 004°04'0 0.0
2017-Feb-06 22:34N 51°58' E 004°04'0 0.0
2017-Feb-06 21:34N 51°58' E 004°04'0 0.0
2017-Feb-06 20:34N 51°58' E 004°04'0 0.0
2017-Feb-06 19:33N 51°58' E 004°04'0 0.0
2017-Feb-06 18:34N 51°58' E 004°04'0 0.0
2017-Feb-06 17:34N 51°58' E 004°04'0 0.0
2017-Feb-06 16:33N 51°58' E 004°04'0 0.0
2017-Feb-06 15:34N 51°58' E 004°04'0 0.0
2017-Feb-06 14:34N 51°58' E 004°04'0 0.0
2017-Feb-06 13:34N 51°58' E 004°04'0 0.0
2017-Feb-06 12:34N 51°58' E 004°04'0 0.0
2017-Feb-06 11:34N 51°58' E 004°04'0 0.0
2017-Feb-06 10:33N 51°58' E 004°04'0 0.0
2017-Feb-06 09:33N 51°58' E 004°04'0 0.0
2017-Feb-06 08:34N 51°58' E 004°04'1 1.2
2017-Feb-06 07:34N 51°59' E 004°03'6 5.8
2017-Feb-06 06:33N 52°00' E 003°54'7 7.0
2017-Feb-06 05:34N 51°59' E 003°43'1211.5
2017-Feb-06 04:33N 51°56' E 003°24'  
Track history (hours):
 
Tides and Currents Weather Stations Pressure Air Temp Water Temp Dewpoint Dewpoint Depression Visibility Wind Speed Wind Dir Waves Ship Positions

Peary Spirit

Last reported at 2017-Feb-16 03:18 UTC. Time now 2017-Feb-19 12:03 UTC.
Position N 55°17' E 006°39'.

Length 249 m; draft 9.5 m.

Type: Tanker. MMSI: 311027600.

Date/timePositionNaut miles runAvg speedWind from/ knotsBaromVisibWave heightAir tempDewpointWater temp
2017-Feb-16 03:18N 55°17' E 006°39'1113.2
2017-Feb-16 02:27N 55°06' E 006°47'1213.0
2017-Feb-16 01:33N 54°56' E 006°55'5212.4
2017-Feb-15 21:22N 54°08' E 007°31'1113.9
2017-Feb-15 20:32N 53°58' E 007°41'1514.8
2017-Feb-15 19:34N 53°48' E 007°59'1615.8
2017-Feb-15 18:33N 53°34' E 008°10'1 0.7
2017-Feb-15 17:33N 53°33' E 008°10'0 0.0
2017-Feb-15 10:30N 53°33' E 008°10'0 0.0
2017-Feb-15 01:25N 53°33' E 008°10'2 2.1
2017-Feb-15 00:33N 53°35' E 008°10'9 9.1
2017-Feb-14 23:33N 53°44' E 008°04'1110.5
2017-Feb-14 22:33N 53°51' E 007°51'1110.8
2017-Feb-14 21:33N 53°58' E 007°37'7 1.1
2017-Feb-14 15:29N 54°02' E 007°28'0 0.0
2017-Feb-14 14:11N 54°02' E 007°28'0 0.0
2017-Feb-14 10:26N 54°02' E 007°28'0 0.0
2017-Feb-14 02:20N 54°02' E 007°28'  
2017-Feb-07 04:33N 52°10' E 003°31'1111.4
2017-Feb-07 03:33N 52°05' E 003°47'10 9.7
2017-Feb-07 02:33N 52°00' E 004°01'3 3.0
2017-Feb-07 01:33N 51°58' E 004°04'0 0.0
2017-Feb-07 00:33N 51°58' E 004°04'0 0.0
2017-Feb-06 23:33N 51°58' E 004°04'0 0.0
2017-Feb-06 22:34N 51°58' E 004°04'0 0.0
2017-Feb-06 21:34N 51°58' E 004°04'0 0.0
2017-Feb-06 20:34N 51°58' E 004°04'0 0.0
2017-Feb-06 19:33N 51°58' E 004°04'0 0.0
2017-Feb-06 18:34N 51°58' E 004°04'0 0.0
2017-Feb-06 17:34N 51°58' E 004°04'0 0.0
2017-Feb-06 16:33N 51°58' E 004°04'0 0.0
2017-Feb-06 15:34N 51°58' E 004°04'0 0.0
2017-Feb-06 14:34N 51°58' E 004°04'0 0.0
2017-Feb-06 13:34N 51°58' E 004°04'0 0.0
2017-Feb-06 12:34N 51°58' E 004°04'0 0.0
2017-Feb-06 11:34N 51°58' E 004°04'0 0.0
2017-Feb-06 10:33N 51°58' E 004°04'0 0.0
2017-Feb-06 09:33N 51°58' E 004°04'0 0.0
2017-Feb-06 08:34N 51°58' E 004°04'1 1.2
2017-Feb-06 07:34N 51°59' E 004°03'6 5.8
2017-Feb-06 06:33N 52°00' E 003°54'7 7.0
2017-Feb-06 05:34N 51°59' E 003°43'1211.5
2017-Feb-06 04:33N 51°56' E 003°24'  

Dump ship's entire track history